Aérodrome :
LOGIN :

S'inscrire | Disclaimer

   EN    FR    IT 

 










Légende :    VFR   VFR Marginal   IFR   IFR Intensif   IFR Très Intensif
Visi : 
Plafond : 
>= 8 km
>= 3000ft
5 à 8 km
1000 à 3000 ft
1500m à 5 km
500 à 1000 ft
800 à 1500m
200 à 500 ft
< 800m
< 200 ft
Symboles :   Orages  Brouillard  Fortes neiges  Fortes précipitations  Vent > 20 kt
SIGMETs :   Divers  Orages  Givrage  Turbulence  Onde Orograph.  Cendres Volcan.







- Altitude de l'aérodrome : 256 ft
- Code IATA : CFR
- Voir les cartes d'approche


LFRK - Caen

DERNIER METAR :
  • 202030Z AUTO 28019KT 9999 BKN033 OVC045 10/07 Q1007 TEMPO 27020G35KT 4000 RA BKN012

METARs EXPIRÉS :
  • 202000Z AUTO 28017KT 9999 FEW026 SCT032 OVC050 10/07 Q1006 TEMPO 4000 RA BKN012 BECMG 27020G35KT
  • 201930Z AUTO 29021KT 9999 BKN023 OVC030 10/08 Q1005 TEMPO 4000 RA BKN012 BECMG 27020G35KT
  • 201900Z AUTO 29023KT 9999 -DZ BKN012/// OVC024/// ///TCU 10/09 Q1005 TEMPO 4000 RA BKN012 BECMG 27020G35KT
  • 201830Z AUTO 28020KT 9999 4600 BKN014 OVC019 11/09 Q1003 TEMPO 4000 RA BECMG 27020G35KT
  • 201800Z AUTO 28021KT 9999 BKN017 BKN023 BKN030 11/09 Q1003 TEMPO 4000 RA BKN012 BECMG 27020G35KT

TAF TAF LFRK
Valide du 20 à 15h jusqu'au 21 à 00h UTC


201400Z 2015/2024 27020G35KT 9999 BKN015
TEMPO 2015/2017 3000 RADZ BKN004
TEMPO 2017/2024 4000 RA BKN012
BECMG 2022/2024 29015KT
Météo : +33 2 31 26 68 11
Pas de NOTAMs connus pour ce terrain.
1 SIGMET publié pour la FIR Brest (LFRR) :
 
Turbulence forte
LFRR SIGMET 5 VALID 201800/202200 LFPW
LFRR BREST FIR/UIR SEV TURB FCST SE OF LINE N4615 W00130 - N4415 W00445 SFC/FL040 STNR NC=



MET'MAP, la Météo Aéronautique d'un coup d'oeil ! - Copyright ORBIFLY Décembre 2007 - Disclaimer

ORBIFLY MET'MAP TEAM :

Programmation & Développement : Alexandra Zaïnal
Conception & Développement : Baudouin d'Aumeries
Co-Programmation & Développement : Marc-Olivier Méhu
Soutien technique & logistique : Manuel Goepfert

Contact : metmap@orbifly.com




SOURCES & CREDITS :

   NOAA